Time;durP1;ratioP1;P1;durP2;ratioP2;P2;SDS_P1;SDS_P2;PMS_P1;PMS_P2;Temp;Humidity;BMP_temperature;BMP_pressure;BME280_temperature;BME280_humidity;BME280_pressure;Samples;Min_cycle;Max_cycle;Signal;HPM_P1;HPM_P2
2021/10/26 00:01:15;;;;;;;2.17;2.00;;;9.00;98.40;;;;;;5015418;28;20472;-79
2021/10/26 00:03:41;;;;;;;9.40;2.78;;;9.00;98.40;;;;;;5016192;28;20171;-79
2021/10/26 00:06:07;;;;;;;1.93;1.20;;;9.00;98.40;;;;;;5015190;28;20179;-79
2021/10/26 00:08:32;;;;;;;3.03;2.47;;;9.00;98.50;;;;;;5015645;28;20211;-78
2021/10/26 00:10:58;;;;;;;1.97;1.90;;;8.90;98.60;;;;;;5014656;28;20266;-79
2021/10/26 00:13:24;;;;;;;2.70;1.70;;;8.90;98.80;;;;;;5015419;28;20199;-79
2021/10/26 00:15:51;;;;;;;2.70;2.23;;;8.90;98.80;;;;;;5016105;28;20655;-79
2021/10/26 00:18:17;;;;;;;5.03;1.02;;;8.90;98.80;;;;;;5016302;28;20230;-78
2021/10/26 00:20:43;;;;;;;1.45;1.35;;;9.00;98.80;;;;;;5015661;28;20176;-78
2021/10/26 00:23:09;;;;;;;3.07;1.23;;;8.90;99.00;;;;;;5015303;28;20217;-78
2021/10/26 00:25:36;;;;;;;1.47;1.30;;;8.90;99.10;;;;;;5015734;28;20183;-78
2021/10/26 00:28:02;;;;;;;1.23;1.13;;;8.90;99.10;;;;;;5015281;28;20586;-78
2021/10/26 00:30:28;;;;;;;4.65;2.15;;;8.90;99.10;;;;;;5014982;28;20582;-78
2021/10/26 00:32:54;;;;;;;2.00;1.60;;;8.90;99.10;;;;;;5015534;28;20257;-78
2021/10/26 00:35:20;;;;;;;2.38;1.70;;;8.90;99.10;;;;;;5015304;28;20425;-78
2021/10/26 00:37:46;;;;;;;4.78;2.53;;;8.90;99.10;;;;;;5016477;28;20245;-78
2021/10/26 00:40:13;;;;;;;4.00;3.00;;;9.00;99.10;;;;;;5016666;28;20572;-79
2021/10/26 00:42:39;;;;;;;4.43;2.30;;;9.00;98.70;;;;;;5015448;28;20426;-79
2021/10/26 00:45:05;;;;;;;1.90;1.30;;;9.00;98.70;;;;;;5014898;28;20171;-79
2021/10/26 00:47:31;;;;;;;1.95;1.58;;;9.10;98.40;;;;;;5014775;28;20203;-79
2021/10/26 00:49:57;;;;;;;5.33;2.93;;;9.10;98.20;;;;;;5015119;28;20175;-79
2021/10/26 00:52:23;;;;;;;1.90;1.80;;;9.10;98.30;;;;;;5015405;28;20418;-79
2021/10/26 00:54:49;;;;;;;1.55;1.25;;;9.00;98.80;;;;;;5014611;28;20187;-79
2021/10/26 00:57:18;;;;;;;2.35;1.75;;;9.10;99.10;;;;;;5015738;28;20202;-79
2021/10/26 00:59:43;;;;;;;3.70;2.20;;;9.10;99.10;;;;;;5015868;28;20362;-79
2021/10/26 01:02:09;;;;;;;2.67;2.30;;;9.10;99.10;;;;;;5015660;28;20221;-78
2021/10/26 01:04:35;;;;;;;2.17;1.60;;;9.20;99.00;;;;;;5014391;28;20406;-79
2021/10/26 01:07:01;;;;;;;7.23;2.63;;;9.20;98.70;;;;;;5014744;28;20524;-78
2021/10/26 01:09:27;;;;;;;5.77;1.97;;;9.20;98.30;;;;;;5014694;28;20640;-78
2021/10/26 01:11:53;;;;;;;4.55;1.77;;;9.20;98.20;;;;;;5015371;28;20490;-78
2021/10/26 01:14:20;;;;;;;6.82;2.63;;;9.10;98.20;;;;;;5014605;28;20222;-78
2021/10/26 01:16:45;;;;;;;2.78;1.52;;;9.10;98.10;;;;;;5014632;28;20196;-78
2021/10/26 01:19:11;;;;;;;2.90;1.70;;;9.10;98.20;;;;;;5014729;28;20195;-79
2021/10/26 01:21:37;;;;;;;1.80;1.60;;;9.20;98.00;;;;;;5014697;28;20172;-79
2021/10/26 01:24:03;;;;;;;2.53;2.03;;;9.20;98.00;;;;;;5016941;28;20182;-79
2021/10/26 01:26:32;;;;;;;9.77;2.58;;;9.20;98.10;;;;;;5018368;28;20461;-78
2021/10/26 01:28:58;;;;;;;3.20;2.78;;;9.20;98.00;;;;;;5017529;28;20203;-79
2021/10/26 01:31:24;;;;;;;3.35;2.35;;;9.20;98.10;;;;;;5017909;28;20246;-79
2021/10/26 01:33:50;;;;;;;2.87;2.33;;;9.20;97.90;;;;;;5018097;28;20235;-79
2021/10/26 01:36:19;;;;;;;3.03;2.10;;;9.20;98.00;;;;;;5018297;28;20175;-78
2021/10/26 01:38:46;;;;;;;1.52;1.27;;;9.20;97.80;;;;;;5018763;28;20422;-78
2021/10/26 01:41:12;;;;;;;2.97;2.10;;;9.20;97.80;;;;;;5018556;28;20258;-79
2021/10/26 01:43:37;;;;;;;2.13;2.00;;;9.20;97.70;;;;;;5018391;28;20625;-79
2021/10/26 01:46:04;;;;;;;6.22;3.53;;;9.20;97.70;;;;;;5017593;28;20464;-79
2021/10/26 01:48:30;;;;;;;1.58;1.40;;;9.30;97.80;;;;;;5017033;28;20229;-79
2021/10/26 01:50:58;;;;;;;7.88;2.80;;;9.30;97.70;;;;;;5017421;28;20171;-79
2021/10/26 01:53:26;;;;;;;4.40;1.77;;;9.40;97.70;;;;;;5016454;28;20643;-79
2021/10/26 01:55:52;;;;;;;4.70;2.30;;;9.40;97.60;;;;;;5016248;28;20174;-79
2021/10/26 01:58:18;;;;;;;4.22;1.42;;;9.30;98.10;;;;;;5016974;28;20195;-80
2021/10/26 02:00:44;;;;;;;6.05;2.30;;;9.40;98.10;;;;;;5016942;28;20199;-79
2021/10/26 02:03:11;;;;;;;2.55;1.27;;;9.40;98.50;;;;;;5016471;28;20243;-79
2021/10/26 02:05:37;;;;;;;4.72;2.20;;;9.40;98.90;;;;;;5015766;28;20262;-80
2021/10/26 02:08:02;;;;;;;4.00;1.42;;;9.40;99.10;;;;;;5016935;28;20265;-79
2021/10/26 02:10:28;;;;;;;4.03;1.92;;;9.40;99.10;;;;;;5017520;28;20270;-79
2021/10/26 02:12:54;;;;;;;2.13;1.98;;;9.40;99.10;;;;;;5017041;28;20186;-80
2021/10/26 02:15:20;;;;;;;5.50;2.07;;;9.40;99.10;;;;;;5016603;28;20175;-77
2021/10/26 02:17:46;;;;;;;13.33;2.50;;;9.40;99.10;;;;;;5016507;28;20558;-79
2021/10/26 02:20:11;;;;;;;3.23;2.03;;;9.40;99.10;;;;;;5016209;28;20414;-79
2021/10/26 02:22:38;;;;;;;2.83;2.03;;;9.40;99.10;;;;;;5016775;28;20186;-79
2021/10/26 02:25:04;;;;;;;3.92;3.42;;;9.40;99.10;;;;;;5016720;28;20724;-79
2021/10/26 02:27:30;;;;;;;4.50;2.40;;;9.40;99.10;;;;;;5016433;28;20256;-79
2021/10/26 02:29:56;;;;;;;1.53;1.43;;;9.40;99.10;;;;;;5017062;28;20175;-79
2021/10/26 02:32:22;;;;;;;2.57;2.03;;;9.40;99.10;;;;;;5016857;28;20171;-79
2021/10/26 02:34:48;;;;;;;2.85;2.13;;;9.40;99.10;;;;;;5016504;28;20996;-78
2021/10/26 02:37:14;;;;;;;1.70;1.40;;;9.40;99.10;;;;;;5016433;28;20191;-78
2021/10/26 02:39:40;;;;;;;4.17;2.23;;;9.30;99.10;;;;;;5016276;28;20446;-78
2021/10/26 02:42:06;;;;;;;3.85;2.05;;;9.30;99.10;;;;;;5016262;28;20422;-78
2021/10/26 02:44:32;;;;;;;2.17;2.00;;;9.30;99.10;;;;;;5016981;28;20175;-78
2021/10/26 02:46:58;;;;;;;3.20;2.20;;;9.30;99.10;;;;;;5016204;28;20663;-78
2021/10/26 02:49:24;;;;;;;2.90;2.37;;;9.30;99.10;;;;;;5015854;28;20182;-78
2021/10/26 02:51:50;;;;;;;3.00;2.45;;;9.20;99.10;;;;;;5015484;28;20421;-79
2021/10/26 02:54:16;;;;;;;2.03;1.90;;;9.20;99.10;;;;;;5015260;28;20234;-79
2021/10/26 02:56:42;;;;;;;2.47;2.27;;;9.30;99.10;;;;;;5015361;28;20196;-79
2021/10/26 02:59:08;;;;;;;2.97;1.52;;;9.20;99.10;;;;;;5015146;28;20177;-79
2021/10/26 03:01:34;;;;;;;2.10;2.00;;;9.10;99.10;;;;;;5014836;28;20191;-79
2021/10/26 03:04:00;;;;;;;4.47;2.30;;;9.20;99.10;;;;;;5016717;28;20179;-79
2021/10/26 03:06:25;;;;;;;3.30;2.30;;;9.10;99.10;;;;;;5017240;28;20172;-79
2021/10/26 03:08:51;;;;;;;1.73;1.63;;;9.10;99.10;;;;;;5016554;28;20819;-79
2021/10/26 03:11:18;;;;;;;3.13;2.42;;;9.10;99.10;;;;;;5016027;28;20413;-79
2021/10/26 03:13:45;;;;;;;3.80;3.60;;;9.00;99.10;;;;;;5016389;28;20687;-78
2021/10/26 03:16:11;;;;;;;2.40;2.20;;;9.00;99.10;;;;;;5016469;28;20171;-79
2021/10/26 03:18:36;;;;;;;1.57;1.43;;;9.00;99.10;;;;;;5015962;28;20191;-78
2021/10/26 03:21:02;;;;;;;3.60;2.50;;;8.90;99.10;;;;;;5015877;28;20175;-78
2021/10/26 03:23:28;;;;;;;8.27;2.20;;;8.80;99.10;;;;;;5015269;28;20457;-79
2021/10/26 03:25:54;;;;;;;2.30;2.10;;;8.70;99.10;;;;;;5014997;28;20438;-77
2021/10/26 03:28:20;;;;;;;2.45;2.03;;;8.70;99.10;;;;;;5014731;28;20253;-78
2021/10/26 03:30:46;;;;;;;5.32;3.72;;;8.60;99.10;;;;;;5014668;28;20222;-79
2021/10/26 03:33:12;;;;;;;6.05;3.03;;;8.60;99.10;;;;;;5015247;28;20182;-79
2021/10/26 03:35:38;;;;;;;1.70;1.60;;;8.50;99.10;;;;;;5014991;28;20262;-79
2021/10/26 03:38:05;;;;;;;2.55;1.73;;;8.50;99.10;;;;;;5015412;28;20438;-79
2021/10/26 03:40:31;;;;;;;3.08;1.88;;;8.40;99.10;;;;;;5015404;28;20175;-78
2021/10/26 03:42:57;;;;;;;14.85;2.47;;;8.40;99.10;;;;;;5015123;28;20654;-79
2021/10/26 03:45:23;;;;;;;4.33;2.13;;;8.30;99.10;;;;;;5015628;28;20174;-79
2021/10/26 03:47:49;;;;;;;2.67;1.90;;;8.30;99.10;;;;;;5016524;28;20207;-79
2021/10/26 03:50:15;;;;;;;5.07;1.93;;;8.30;99.10;;;;;;5016239;28;20183;-79
2021/10/26 03:52:42;;;;;;;2.33;2.03;;;8.30;99.10;;;;;;5015872;28;20421;-79
2021/10/26 03:55:10;;;;;;;4.93;2.28;;;8.30;99.10;;;;;;5015798;28;20632;-78
2021/10/26 03:57:36;;;;;;;6.57;2.55;;;8.30;99.10;;;;;;5016846;28;20266;-79
2021/10/26 04:00:04;;;;;;;3.08;1.38;;;8.30;99.10;;;;;;5016711;28;20183;-80
2021/10/26 04:02:31;;;;;;;3.72;2.28;;;8.30;99.10;;;;;;5016791;28;20182;-80
2021/10/26 04:05:00;;;;;;;2.65;2.00;;;8.30;99.10;;;;;;5016710;28;20237;-80
2021/10/26 04:07:27;;;;;;;2.35;2.00;;;8.30;99.10;;;;;;5017247;28;20203;-79
2021/10/26 04:10:15;;;;;;;2.67;1.83;;;8.30;99.10;;;;;;5017336;28;20179;-78
2021/10/26 04:12:40;;;;;;;3.22;2.58;;;8.30;99.10;;;;;;5002044;28;20284;-80
2021/10/26 04:15:07;;;;;;;7.53;3.07;;;8.30;99.10;;;;;;5016656;28;20167;-80
2021/10/26 04:17:32;;;;;;;4.10;2.05;;;8.30;99.10;;;;;;5016211;28;20675;-80
2021/10/26 04:19:59;;;;;;;2.27;2.00;;;8.20;99.10;;;;;;5016359;28;20175;-79
2021/10/26 04:22:25;;;;;;;2.28;2.08;;;8.20;99.10;;;;;;5016112;28;20225;-79
2021/10/26 04:24:52;;;;;;;2.40;1.60;;;8.20;99.10;;;;;;5016784;28;20198;-79
2021/10/26 04:27:19;;;;;;;5.70;3.78;;;8.20;99.10;;;;;;5016416;28;20207;-79
2021/10/26 04:29:45;;;;;;;6.07;2.78;;;8.30;99.10;;;;;;5016341;28;20178;-78
2021/10/26 04:32:12;;;;;;;5.30;2.65;;;8.30;99.10;;;;;;5015774;28;20178;-79
2021/10/26 04:34:39;;;;;;;8.75;4.20;;;8.30;99.10;;;;;;5015227;28;20682;-79
2021/10/26 04:37:06;;;;;;;2.42;2.22;;;8.30;99.10;;;;;;5015358;28;20199;-77
2021/10/26 04:39:36;;;;;;;5.45;2.90;;;8.30;99.10;;;;;;5015175;28;20171;-79
2021/10/26 04:42:04;;;;;;;3.53;2.20;;;8.30;99.10;;;;;;5016216;28;20175;-79
2021/10/26 04:44:30;;;;;;;3.40;2.72;;;8.30;99.10;;;;;;5016574;28;20179;-79
2021/10/26 04:46:56;;;;;;;3.70;2.55;;;8.30;99.10;;;;;;5016042;28;20690;-79
2021/10/26 04:49:21;;;;;;;1.65;1.50;;;8.30;99.10;;;;;;5015500;28;20167;-79
2021/10/26 04:51:47;;;;;;;3.10;2.70;;;8.30;99.10;;;;;;5014953;28;20178;-79
2021/10/26 04:54:13;;;;;;;1.80;1.40;;;8.40;99.10;;;;;;5016634;28;20447;-79
2021/10/26 04:56:39;;;;;;;3.53;1.80;;;8.40;99.10;;;;;;5017438;28;20429;-79
2021/10/26 04:59:05;;;;;;;2.77;1.77;;;8.50;99.10;;;;;;5020145;28;20183;-79
2021/10/26 05:01:31;;;;;;;3.50;2.13;;;8.50;99.10;;;;;;5020295;28;20436;-79
2021/10/26 05:03:57;;;;;;;2.53;1.73;;;8.50;99.10;;;;;;5019662;28;20687;-79
2021/10/26 05:06:23;;;;;;;4.20;2.58;;;8.60;99.10;;;;;;5020102;28;20418;-79
2021/10/26 05:08:52;;;;;;;5.33;3.53;;;8.70;99.10;;;;;;5019061;28;20664;-79
2021/10/26 05:11:19;;;;;;;6.22;2.47;;;8.70;99.10;;;;;;5017797;28;20421;-79
2021/10/26 05:13:45;;;;;;;2.42;1.90;;;8.80;99.10;;;;;;5018222;28;20191;-79
2021/10/26 05:16:11;;;;;;;7.50;3.67;;;8.80;99.10;;;;;;5019688;28;20175;-79
2021/10/26 05:18:40;;;;;;;2.00;1.88;;;8.80;99.10;;;;;;5019337;28;20526;-79
2021/10/26 05:21:10;;;;;;;5.82;2.55;;;8.80;99.10;;;;;;5017991;28;20202;-79
2021/10/26 05:23:37;;;;;;;9.07;2.92;;;8.90;99.10;;;;;;5018733;28;20178;-79
2021/10/26 05:26:03;;;;;;;4.18;2.17;;;8.90;99.10;;;;;;5018379;28;20224;-79
2021/10/26 05:28:28;;;;;;;1.67;1.27;;;8.90;99.10;;;;;;5017812;28;20302;-78
2021/10/26 05:30:54;;;;;;;2.53;2.13;;;8.90;99.10;;;;;;5018518;28;20178;-79
2021/10/26 05:33:20;;;;;;;9.20;4.70;;;9.00;99.10;;;;;;5018467;28;20450;-79
2021/10/26 05:35:46;;;;;;;8.07;4.13;;;9.00;99.10;;;;;;5016202;28;20410;-79
2021/10/26 05:38:11;;;;;;;5.00;1.93;;;8.90;99.10;;;;;;5017728;28;20477;-80
2021/10/26 05:40:37;;;;;;;1.80;1.63;;;8.90;99.10;;;;;;5017209;28;20501;-80
2021/10/26 05:43:03;;;;;;;7.27;1.97;;;8.90;99.10;;;;;;5017187;28;20175;-79
2021/10/26 05:45:29;;;;;;;9.23;1.87;;;8.90;99.10;;;;;;5016183;28;20525;-80
2021/10/26 05:47:54;;;;;;;5.33;2.43;;;8.80;99.10;;;;;;5016580;28;20838;-80
2021/10/26 05:50:20;;;;;;;5.13;3.03;;;8.90;99.10;;;;;;5015970;28;20175;-79
2021/10/26 05:52:46;;;;;;;1.63;1.52;;;8.80;99.10;;;;;;5016759;28;20167;-80
2021/10/26 05:55:12;;;;;;;2.30;2.03;;;8.90;99.10;;;;;;5016246;28;20247;-81
2021/10/26 05:57:38;;;;;;;9.10;3.90;;;8.80;99.10;;;;;;5016731;28;20533;-81
2021/10/26 06:00:05;;;;;;;2.63;2.47;;;8.80;99.10;;;;;;5017342;28;20842;-81
2021/10/26 06:02:33;;;;;;;2.28;2.08;;;8.80;99.10;;;;;;5016356;28;20418;-79
2021/10/26 06:04:59;;;;;;;6.00;3.33;;;8.80;99.10;;;;;;5017291;28;20591;-79
2021/10/26 06:07:25;;;;;;;4.10;1.60;;;8.80;99.10;;;;;;5017405;28;20203;-79
2021/10/26 06:09:51;;;;;;;3.87;1.53;;;8.80;99.10;;;;;;5001900;28;20774;-79
2021/10/26 06:12:22;;;;;;;3.40;1.70;;;8.80;99.10;;;;;;5018496;28;20410;-79
2021/10/26 06:14:47;;;;;;;7.03;3.85;;;8.70;99.10;;;;;;5020427;28;20178;-79
2021/10/26 06:17:13;;;;;;;4.30;3.57;;;8.70;99.10;;;;;;5018831;28;20199;-79
2021/10/26 06:19:39;;;;;;;6.60;3.33;;;8.70;99.10;;;;;;5020077;28;20657;-78
2021/10/26 06:22:05;;;;;;;4.57;2.57;;;8.60;99.10;;;;;;5018020;28;20237;-80
2021/10/26 06:24:30;;;;;;;1.87;1.80;;;8.70;99.10;;;;;;5018786;28;20632;-78
2021/10/26 06:26:56;;;;;;;3.27;3.13;;;8.70;99.10;;;;;;5000983;28;20438;-79
2021/10/26 06:29:22;;;;;;;3.73;2.73;;;8.70;99.10;;;;;;5017678;28;20202;-79
2021/10/26 06:31:48;;;;;;;1.50;1.40;;;8.70;99.10;;;;;;5017439;28;20411;-79
2021/10/26 06:34:13;;;;;;;4.53;3.57;;;8.80;99.10;;;;;;5016770;28;20186;-81
2021/10/26 06:36:39;;;;;;;1.57;1.47;;;8.80;99.10;;;;;;5016975;28;20430;-79
2021/10/26 06:39:05;;;;;;;10.98;2.80;;;8.80;99.10;;;;;;5018864;28;20712;-78
2021/10/26 06:41:31;;;;;;;7.90;3.77;;;8.70;99.10;;;;;;5018076;28;20183;-79
2021/10/26 06:43:57;;;;;;;1.85;1.73;;;8.80;99.10;;;;;;5017147;28;20415;-80
2021/10/26 06:46:23;;;;;;;5.30;2.33;;;8.90;99.10;;;;;;5016883;28;20286;-80
2021/10/26 06:48:49;;;;;;;3.47;3.10;;;8.90;99.10;;;;;;5017449;28;20234;-80
2021/10/26 06:51:14;;;;;;;4.00;3.73;;;8.90;99.10;;;;;;5016162;28;20626;-80
2021/10/26 06:53:40;;;;;;;2.97;2.80;;;8.90;99.10;;;;;;5016304;28;20178;-79
2021/10/26 06:56:14;;;;;;;4.28;2.55;;;9.00;99.10;;;;;;5015890;28;20176;-77
2021/10/26 06:58:40;;;;;;;7.55;3.22;;;9.10;99.10;;;;;;5015824;28;20290;-79
2021/10/26 07:01:07;;;;;;;2.20;1.93;;;9.10;99.10;;;;;;5015649;28;20202;-79
2021/10/26 07:03:37;;;;;;;1.98;1.83;;;9.10;99.10;;;;;;5015609;28;20430;-79
2021/10/26 07:06:04;;;;;;;6.30;3.45;;;9.20;99.10;;;;;;5014726;28;20596;-78
2021/10/26 07:08:31;;;;;;;5.13;2.80;;;9.30;99.10;;;;;;5016834;28;20785;-79
2021/10/26 07:10:57;;;;;;;5.45;2.97;;;9.40;99.10;;;;;;5016068;28;20172;-78
2021/10/26 07:13:24;;;;;;;3.10;2.58;;;9.40;99.10;;;;;;5015126;28;20194;-78
2021/10/26 07:15:50;;;;;;;4.38;2.83;;;9.50;99.10;;;;;;5015685;28;20197;-79
2021/10/26 07:18:15;;;;;;;6.70;2.57;;;9.60;99.10;;;;;;5016211;28;20195;-79
2021/10/26 07:20:41;;;;;;;3.00;2.20;;;9.70;99.10;;;;;;5014601;28;20522;-78
2021/10/26 07:23:07;;;;;;;2.93;2.10;;;9.70;99.10;;;;;;5015692;28;20175;-78
2021/10/26 07:25:33;;;;;;;4.67;3.00;;;9.80;99.10;;;;;;5014058;28;20418;-78
2021/10/26 07:27:59;;;;;;;3.97;2.35;;;9.80;99.10;;;;;;5014525;28;20275;-78
2021/10/26 07:30:29;;;;;;;2.20;2.05;;;9.80;99.10;;;;;;5014834;28;20171;-78
2021/10/26 07:32:56;;;;;;;6.07;2.38;;;9.90;99.10;;;;;;5014615;28;20532;-78
2021/10/26 07:35:28;;;;;;;2.55;1.95;;;9.90;99.10;;;;;;5014343;28;20198;-79
2021/10/26 07:37:54;;;;;;;4.82;2.90;;;10.00;99.10;;;;;;5014245;28;20195;-79
2021/10/26 07:40:20;;;;;;;6.13;3.30;;;10.00;99.10;;;;;;5014300;28;20190;-78
2021/10/26 07:42:46;;;;;;;2.67;2.13;;;10.00;99.10;;;;;;5015315;28;20183;-79
2021/10/26 07:45:12;;;;;;;12.23;4.10;;;10.00;99.10;;;;;;5014951;28;20411;-79
2021/10/26 07:47:38;;;;;;;6.55;2.47;;;10.00;99.10;;;;;;5013909;28;20207;-79
2021/10/26 07:50:07;;;;;;;2.50;2.28;;;10.10;99.10;;;;;;5015773;28;20738;-79
2021/10/26 07:52:33;;;;;;;4.45;3.20;;;10.10;99.10;;;;;;5014310;28;20178;-80
2021/10/26 07:54:59;;;;;;;3.03;2.40;;;10.20;99.10;;;;;;5013248;28;20263;-79
2021/10/26 07:57:26;;;;;;;8.50;3.77;;;10.20;99.10;;;;;;5014048;28;20660;-79
2021/10/26 07:59:56;;;;;;;8.55;3.85;;;10.20;99.10;;;;;;5015736;28;20175;-80
2021/10/26 08:02:23;;;;;;;5.65;2.95;;;10.30;99.10;;;;;;5015141;28;20171;-80
2021/10/26 08:04:49;;;;;;;4.45;3.17;;;10.40;99.10;;;;;;5015587;28;20186;-79
2021/10/26 08:07:17;;;;;;;4.70;2.80;;;10.40;99.10;;;;;;5014571;28;20199;-79
2021/10/26 08:09:53;;;;;;;4.22;2.95;;;10.50;99.10;;;;;;5015693;28;20239;-79
2021/10/26 08:12:24;;;;;;;3.15;2.90;;;10.60;99.10;;;;;;5016252;28;20198;-79
2021/10/26 08:14:50;;;;;;;6.20;3.60;;;10.60;99.10;;;;;;5015848;28;20171;-79
2021/10/26 08:17:17;;;;;;;5.53;2.58;;;10.70;99.10;;;;;;5015020;28;20191;-79
2021/10/26 08:19:45;;;;;;;9.18;4.13;;;10.70;99.10;;;;;;5000932;28;20179;-80
2021/10/26 08:22:16;;;;;;;6.22;4.32;;;10.80;99.10;;;;;;5015546;28;20179;-79
2021/10/26 08:24:44;;;;;;;16.33;4.00;;;10.90;99.10;;;;;;5016210;28;20243;-79
2021/10/26 08:27:15;;;;;;;7.00;4.38;;;10.90;99.10;;;;;;5014837;28;20210;-79
2021/10/26 08:29:47;;;;;;;7.63;2.88;;;11.00;99.10;;;;;;5015112;28;20163;-79
2021/10/26 08:37:12;;;;;;;8.55;3.83;;;11.40;99.10;;;;;;5000082;28;20237;-79
2021/10/26 08:39:40;;;;;;;6.40;2.75;;;11.50;99.10;;;;;;5015004;28;20554;-80
2021/10/26 08:42:09;;;;;;;7.00;5.07;;;11.70;99.10;;;;;;5017026;28;20177;-79
2021/10/26 08:44:35;;;;;;;5.45;3.05;;;11.80;99.10;;;;;;5016406;28;20171;-79
2021/10/26 08:47:02;;;;;;;9.10;4.57;;;11.80;99.10;;;;;;5016120;28;20192;-79
2021/10/26 08:49:28;;;;;;;8.85;3.85;;;12.00;99.10;;;;;;5016288;28;20180;-79
2021/10/26 08:51:54;;;;;;;5.60;3.00;;;12.20;99.10;;;;;;5015787;28;20693;-79
2021/10/26 08:54:21;;;;;;;5.18;3.72;;;12.30;99.10;;;;;;5015638;28;20186;-79
2021/10/26 08:56:48;;;;;;;11.98;3.78;;;12.40;98.50;;;;;;5015176;28;20231;-80
2021/10/26 08:59:22;;;;;;;8.82;5.10;;;12.50;98.90;;;;;;5015107;28;20175;-80
2021/10/26 09:01:50;;;;;;;4.63;3.70;;;12.60;97.70;;;;;;5015354;28;20530;-80
2021/10/26 09:04:17;;;;;;;3.50;3.10;;;12.80;98.00;;;;;;5015466;28;20243;-80
2021/10/26 09:06:53;;;;;;;5.85;3.53;;;12.90;97.20;;;;;;5014335;28;20662;-79
2021/10/26 09:09:27;;;;;;;6.30;3.85;;;13.00;97.20;;;;;;5014518;28;20258;-80
2021/10/26 09:17:33;;;;;;;4.90;2.80;;;13.10;97.00;;;;;;5000148;28;20201;-79
2021/10/26 09:20:01;;;;;;;5.32;2.63;;;13.00;96.60;;;;;;5015482;28;20230;-79
2021/10/26 09:22:29;;;;;;;6.93;3.38;;;13.20;97.40;;;;;;5015589;28;20175;-80
2021/10/26 09:24:56;;;;;;;6.85;4.10;;;13.40;96.60;;;;;;5015988;28;20182;-80
2021/10/26 09:27:23;;;;;;;7.63;4.63;;;13.50;95.80;;;;;;5015132;28;20207;-79
2021/10/26 09:29:51;;;;;;;9.23;3.50;;;13.70;96.00;;;;;;5014865;28;20175;-79
2021/10/26 09:32:21;;;;;;;4.97;3.10;;;13.80;95.60;;;;;;5014808;28;20561;-79
2021/10/26 09:34:55;;;;;;;5.90;3.20;;;13.90;95.00;;;;;;5016289;28;20654;-80
2021/10/26 09:37:23;;;;;;;7.55;3.45;;;14.10;94.70;;;;;;5015319;28;20674;-79
2021/10/26 09:40:00;;;;;;;11.52;3.88;;;14.30;94.90;;;;;;5015641;28;20176;-80
2021/10/26 09:42:27;;;;;;;5.22;3.72;;;14.50;94.80;;;;;;5014661;28;20650;-80
2021/10/26 09:45:01;;;;;;;4.13;2.63;;;14.60;94.00;;;;;;5017367;28;20178;-80
2021/10/26 09:47:29;;;;;;;5.18;3.05;;;14.80;94.30;;;;;;5018450;28;20221;-80
2021/10/26 09:50:00;;;;;;;7.43;3.10;;;14.90;93.70;;;;;;5018878;28;20193;-79
2021/10/26 09:52:36;;;;;;;4.35;2.75;;;15.00;93.70;;;;;;5018212;28;20194;-79
2021/10/26 09:55:14;;;;;;;9.57;3.50;;;15.10;93.30;;;;;;5018758;28;20546;-80
2021/10/26 09:57:46;;;;;;;6.88;3.45;;;15.10;93.40;;;;;;5018917;28;20249;-80
2021/10/26 10:00:14;;;;;;;7.00;3.30;;;15.10;93.40;;;;;;5018470;28;20195;-79
2021/10/26 10:02:40;;;;;;;4.68;2.80;;;15.30;93.90;;;;;;5019317;28;20183;-79
2021/10/26 10:05:34;;;;;;;7.10;3.40;;;15.40;92.90;;;;;;5018561;28;20207;-79
2021/10/26 10:08:33;;;;;;;7.88;4.03;;;15.50;92.40;;;;;;5014918;28;20218;-80
2021/10/26 10:11:15;;;;;;;6.25;3.97;;;15.60;90.90;;;;;;5018289;28;20175;-80
2021/10/26 10:13:47;;;;;;;3.83;2.80;;;15.80;90.20;;;;;;5001471;28;20191;-80
2021/10/26 10:16:17;;;;;;;11.55;3.30;;;15.80;89.80;;;;;;5018241;28;20171;-80
2021/10/26 10:18:50;;;;;;;5.68;2.90;;;15.80;89.40;;;;;;5017900;28;20183;-80
2021/10/26 10:21:20;;;;;;;8.75;3.60;;;15.90;88.70;;;;;;5018540;28;20174;-80
2021/10/26 10:23:47;;;;;;;4.05;2.65;;;16.00;88.80;;;;;;5017693;28;20206;-80
2021/10/26 10:26:24;;;;;;;6.10;4.15;;;16.00;89.20;;;;;;5018647;28;20178;-80
2021/10/26 10:28:52;;;;;;;9.73;4.63;;;16.20;89.80;;;;;;5018937;28;20234;-80
2021/10/26 10:31:20;;;;;;;8.93;3.90;;;16.40;89.60;;;;;;5018130;28;20199;-80
2021/10/26 10:33:47;;;;;;;7.18;3.95;;;16.30;87.30;;;;;;5018841;28;20171;-79
2021/10/26 10:36:15;;;;;;;7.72;3.58;;;16.20;88.90;;;;;;5019957;28;20285;-80
2021/10/26 10:38:42;;;;;;;4.72;2.28;;;16.30;88.50;;;;;;5018496;28;20862;-80
2021/10/26 10:41:33;;;;;;;7.53;3.25;;;16.20;88.80;;;;;;5018341;28;20179;-80
2021/10/26 10:44:04;;;;;;;4.38;3.00;;;16.30;89.40;;;;;;5016766;28;20171;-79
2021/10/26 10:46:44;;;;;;;10.50;3.92;;;16.50;88.70;;;;;;5019029;28;20230;-79
2021/10/26 10:49:22;;;;;;;6.32;3.50;;;16.60;89.20;;;;;;5017001;28;20587;-78
2021/10/26 10:51:59;;;;;;;6.20;3.50;;;16.80;86.70;;;;;;5000054;28;20171;-78
2021/10/26 10:54:51;;;;;;;4.13;3.00;;;16.90;87.10;;;;;;5017663;28;20174;-78
2021/10/26 10:57:27;;;;;;;6.57;2.92;;;17.00;85.10;;;;;;5002353;28;20195;-79
2021/10/26 10:59:57;;;;;;;5.30;3.10;;;17.00;83.50;;;;;;5018482;28;20631;-78
2021/10/26 11:02:35;;;;;;;4.40;2.60;;;17.00;83.90;;;;;;5018766;28;20524;-79
2021/10/26 11:05:04;;;;;;;5.07;3.35;;;17.00;84.10;;;;;;5018135;28;20243;-79
2021/10/26 11:07:42;;;;;;;2.92;2.35;;;16.90;83.70;;;;;;5017918;28;20211;-79
2021/10/26 11:10:14;;;;;;;3.13;2.13;;;16.80;83.90;;;;;;5002559;28;20198;-78
2021/10/26 11:12:42;;;;;;;4.20;2.88;;;16.80;85.80;;;;;;5017712;28;20179;-79
2021/10/26 11:15:11;;;;;;;6.22;2.85;;;16.80;83.80;;;;;;5017850;28;20183;-78
2021/10/26 11:17:39;;;;;;;3.55;2.80;;;16.90;81.70;;;;;;5019323;28;20252;-78
2021/10/26 11:20:07;;;;;;;4.85;2.03;;;16.90;81.20;;;;;;5002786;28;20664;-79
2021/10/26 11:22:50;;;;;;;2.20;1.95;;;16.90;81.40;;;;;;5018550;28;20190;-78
2021/10/26 11:25:34;;;;;;;3.65;2.30;;;16.90;82.30;;;;;;5018354;28;20632;-79
2021/10/26 11:28:25;;;;;;;4.88;2.33;;;17.10;82.10;;;;;;5018360;28;20300;-79
2021/10/26 11:30:56;;;;;;;3.55;2.15;;;17.10;83.50;;;;;;5017939;28;20167;-79
2021/10/26 11:33:24;;;;;;;2.42;1.80;;;17.20;81.60;;;;;;5000337;28;20181;-79
2021/10/26 11:35:52;;;;;;;2.95;2.17;;;17.30;82.60;;;;;;5000163;28;20184;-79
2021/10/26 11:38:18;;;;;;;11.38;3.25;;;17.30;82.30;;;;;;5017317;28;20195;-78
2021/10/26 11:40:57;;;;;;;18.37;3.43;;;17.40;84.60;;;;;;4998955;28;20179;-79
2021/10/26 11:43:31;;;;;;;1.80;1.20;;;17.50;82.40;;;;;;5015700;28;20206;-79
2021/10/26 11:46:02;;;;;;;3.25;2.03;;;17.50;80.30;;;;;;5014785;28;20171;-79
2021/10/26 11:48:48;;;;;;;2.92;1.95;;;17.40;79.40;;;;;;5015086;28;20203;-78
2021/10/26 11:51:33;;;;;;;1.55;1.15;;;17.30;79.50;;;;;;5016215;28;20178;-79
2021/10/26 11:54:07;;;;;;;1.88;1.60;;;17.30;80.90;;;;;;5016566;28;20171;-79
2021/10/26 11:56:38;;;;;;;1.67;1.25;;;17.30;81.20;;;;;;4999357;28;20155;-79
2021/10/26 11:59:08;;;;;;;1.30;1.20;;;17.30;78.90;;;;;;5016033;28;20163;-78
2021/10/26 12:01:39;;;;;;;0.95;0.85;;;17.30;80.60;;;;;;5016772;28;20309;-79
2021/10/26 12:04:29;;;;;;;2.05;1.30;;;17.20;79.90;;;;;;5016864;28;20843;-79
2021/10/26 12:07:03;;;;;;;1.30;1.20;;;17.10;78.80;;;;;;4999154;28;20570;-79
2021/10/26 12:09:31;;;;;;;1.65;1.27;;;17.00;79.60;;;;;;5016679;28;20196;-79
2021/10/26 12:12:05;;;;;;;1.98;1.25;;;16.90;79.90;;;;;;5015769;28;20172;-79
2021/10/26 12:14:36;;;;;;;1.40;1.08;;;16.80;79.60;;;;;;5015845;28;20285;-79
2021/10/26 12:17:10;;;;;;;0.77;0.70;;;16.80;80.10;;;;;;5016199;28;20258;-79
2021/10/26 12:19:52;;;;;;;1.77;1.17;;;16.80;80.30;;;;;;5016592;28;20187;-79
2021/10/26 12:22:26;;;;;;;1.65;1.15;;;16.80;81.00;;;;;;5015710;28;20179;-79
2021/10/26 12:24:57;;;;;;;1.40;0.98;;;16.80;80.10;;;;;;5015525;28;20162;-79
2021/10/26 12:27:31;;;;;;;1.77;1.15;;;16.70;80.60;;;;;;5016534;28;20709;-79
2021/10/26 12:30:17;;;;;;;1.50;1.20;;;16.60;80.80;;;;;;5016927;28;20162;-79
2021/10/26 12:33:07;;;;;;;5.28;1.83;;;16.60;81.00;;;;;;5018010;28;20171;-79
2021/10/26 12:35:54;;;;;;;13.18;3.35;;;16.50;83.40;;;;;;5017285;28;20167;-79
2021/10/26 12:38:27;;;;;;;2.25;1.33;;;16.40;83.40;;;;;;5016851;28;20202;-79
2021/10/26 12:41:14;;;;;;;4.82;2.65;;;16.40;83.90;;;;;;5016343;28;20171;-79
2021/10/26 12:43:49;;;;;;;2.10;1.95;;;16.50;84.20;;;;;;5016284;28;20682;-80
2021/10/26 12:46:23;;;;;;;3.50;1.65;;;16.50;82.80;;;;;;5016228;28;20213;-80
2021/10/26 12:48:52;;;;;;;5.43;2.00;;;16.50;82.30;;;;;;5014609;28;20253;-80
2021/10/26 12:51:20;;;;;;;2.63;1.45;;;16.60;81.90;;;;;;5015668;28;20175;-78
2021/10/26 12:53:46;;;;;;;2.35;0.88;;;16.50;82.80;;;;;;5014167;28;20217;-80
2021/10/26 12:56:20;;;;;;;1.50;0.90;;;16.50;81.90;;;;;;5014818;28;20239;-79
2021/10/26 12:58:53;;;;;;;1.08;0.93;;;16.50;82.70;;;;;;5014682;28;20178;-79
2021/10/26 13:01:39;;;;;;;3.53;1.27;;;16.40;82.70;;;;;;5013381;28;20528;-78
2021/10/26 13:04:10;;;;;;;0.95;0.85;;;16.40;84.10;;;;;;5013401;28;20178;-80
2021/10/26 13:06:39;;;;;;;3.45;1.25;;;16.40;83.50;;;;;;5015310;28;20595;-79
2021/10/26 13:09:08;;;;;;;1.60;1.42;;;16.50;84.40;;;;;;5014927;28;20629;-79
2021/10/26 13:11:40;;;;;;;1.40;1.05;;;16.50;85.60;;;;;;5015325;28;20230;-83